sensor_id;sensor_type;location;lat;lon;timestamp;P1;durP1;ratioP1;P2;durP2;ratioP2
72085;SDS011;64750;52.134;5.424;2024-01-16T00:02:12;4.90;;;0.85;;
72085;SDS011;64750;52.134;5.424;2024-01-16T00:04:39;4.73;;;0.67;;
72085;SDS011;64750;52.134;5.424;2024-01-16T00:07:07;3.97;;;0.60;;
72085;SDS011;64750;52.134;5.424;2024-01-16T00:09:33;6.35;;;1.17;;
72085;SDS011;64750;52.134;5.424;2024-01-16T00:12:04;2.60;;;0.68;;
72085;SDS011;64750;52.134;5.424;2024-01-16T00:14:30;5.65;;;0.82;;
72085;SDS011;64750;52.134;5.424;2024-01-16T00:17:00;3.10;;;0.90;;
72085;SDS011;64750;52.134;5.424;2024-01-16T00:19:27;3.28;;;0.60;;
72085;SDS011;64750;52.134;5.424;2024-01-16T00:21:54;3.67;;;0.60;;
72085;SDS011;64750;52.134;5.424;2024-01-16T00:24:20;5.57;;;1.15;;
72085;SDS011;64750;52.134;5.424;2024-01-16T00:26:47;3.92;;;0.50;;
72085;SDS011;64750;52.134;5.424;2024-01-16T00:29:13;9.30;;;0.80;;
72085;SDS011;64750;52.134;5.424;2024-01-16T00:31:40;1.13;;;0.40;;
72085;SDS011;64750;52.134;5.424;2024-01-16T00:34:06;4.00;;;0.88;;
72085;SDS011;64750;52.134;5.424;2024-01-16T00:36:34;2.60;;;1.05;;
72085;SDS011;64750;52.134;5.424;2024-01-16T00:39:00;4.65;;;0.75;;
72085;SDS011;64750;52.134;5.424;2024-01-16T00:41:27;4.60;;;0.87;;
72085;SDS011;64750;52.134;5.424;2024-01-16T00:43:53;11.82;;;1.02;;
72085;SDS011;64750;52.134;5.424;2024-01-16T00:46:20;5.85;;;0.77;;
72085;SDS011;64750;52.134;5.424;2024-01-16T00:48:46;1.88;;;0.30;;
72085;SDS011;64750;52.134;5.424;2024-01-16T00:51:14;4.07;;;0.73;;
72085;SDS011;64750;52.134;5.424;2024-01-16T00:53:41;3.20;;;0.60;;
72085;SDS011;64750;52.134;5.424;2024-01-16T00:56:08;4.10;;;0.47;;
72085;SDS011;64750;52.134;5.424;2024-01-16T00:58:35;4.95;;;0.80;;
72085;SDS011;64750;52.134;5.424;2024-01-16T01:01:02;3.90;;;0.68;;
72085;SDS011;64750;52.134;5.424;2024-01-16T01:03:29;2.50;;;0.75;;
72085;SDS011;64750;52.134;5.424;2024-01-16T01:05:56;3.47;;;0.80;;
72085;SDS011;64750;52.134;5.424;2024-01-16T01:08:23;2.67;;;1.00;;
72085;SDS011;64750;52.134;5.424;2024-01-16T01:10:50;2.25;;;0.57;;
72085;SDS011;64750;52.134;5.424;2024-01-16T01:13:16;4.13;;;0.57;;
72085;SDS011;64750;52.134;5.424;2024-01-16T01:15:43;1.65;;;1.00;;
72085;SDS011;64750;52.134;5.424;2024-01-16T01:18:09;7.23;;;1.07;;
72085;SDS011;64750;52.134;5.424;2024-01-16T01:20:36;3.72;;;0.70;;
72085;SDS011;64750;52.134;5.424;2024-01-16T01:23:02;2.28;;;0.73;;
72085;SDS011;64750;52.134;5.424;2024-01-16T01:25:29;2.42;;;0.50;;
72085;SDS011;64750;52.134;5.424;2024-01-16T01:27:55;7.65;;;0.95;;
72085;SDS011;64750;52.134;5.424;2024-01-16T01:30:22;3.00;;;0.70;;
72085;SDS011;64750;52.134;5.424;2024-01-16T01:32:48;2.15;;;0.70;;
72085;SDS011;64750;52.134;5.424;2024-01-16T01:35:16;6.43;;;0.77;;
72085;SDS011;64750;52.134;5.424;2024-01-16T01:37:43;6.80;;;0.70;;
72085;SDS011;64750;52.134;5.424;2024-01-16T01:40:10;1.67;;;0.63;;
72085;SDS011;64750;52.134;5.424;2024-01-16T01:42:40;3.37;;;0.80;;
72085;SDS011;64750;52.134;5.424;2024-01-16T01:45:07;6.43;;;0.60;;
72085;SDS011;64750;52.134;5.424;2024-01-16T01:47:40;3.45;;;0.60;;
72085;SDS011;64750;52.134;5.424;2024-01-16T01:50:10;3.20;;;0.50;;
72085;SDS011;64750;52.134;5.424;2024-01-16T01:52:38;5.38;;;0.90;;
72085;SDS011;64750;52.134;5.424;2024-01-16T01:55:07;4.77;;;0.50;;
72085;SDS011;64750;52.134;5.424;2024-01-16T01:57:37;2.78;;;0.52;;
72085;SDS011;64750;52.134;5.424;2024-01-16T02:00:04;3.53;;;0.35;;
72085;SDS011;64750;52.134;5.424;2024-01-16T02:02:32;5.38;;;0.65;;
72085;SDS011;64750;52.134;5.424;2024-01-16T02:04:59;1.65;;;0.30;;
72085;SDS011;64750;52.134;5.424;2024-01-16T02:07:26;1.67;;;0.20;;
72085;SDS011;64750;52.134;5.424;2024-01-16T02:09:52;6.82;;;0.73;;
72085;SDS011;64750;52.134;5.424;2024-01-16T02:12:19;2.17;;;0.38;;
72085;SDS011;64750;52.134;5.424;2024-01-16T02:14:50;1.65;;;0.30;;
72085;SDS011;64750;52.134;5.424;2024-01-16T02:17:17;1.50;;;0.52;;
72085;SDS011;64750;52.134;5.424;2024-01-16T02:19:43;1.90;;;0.27;;
72085;SDS011;64750;52.134;5.424;2024-01-16T02:22:11;6.50;;;0.55;;
72085;SDS011;64750;52.134;5.424;2024-01-16T02:24:44;1.63;;;0.22;;
72085;SDS011;64750;52.134;5.424;2024-01-16T02:27:11;4.35;;;0.80;;
72085;SDS011;64750;52.134;5.424;2024-01-16T02:29:41;5.25;;;0.45;;
72085;SDS011;64750;52.134;5.424;2024-01-16T02:32:10;2.80;;;0.30;;
72085;SDS011;64750;52.134;5.424;2024-01-16T02:34:40;4.97;;;0.80;;
72085;SDS011;64750;52.134;5.424;2024-01-16T02:37:07;1.63;;;1.30;;
72085;SDS011;64750;52.134;5.424;2024-01-16T02:39:34;8.77;;;0.93;;
72085;SDS011;64750;52.134;5.424;2024-01-16T02:42:01;5.18;;;0.47;;
72085;SDS011;64750;52.134;5.424;2024-01-16T02:44:27;1.87;;;0.63;;
72085;SDS011;64750;52.134;5.424;2024-01-16T02:46:54;2.72;;;0.40;;
72085;SDS011;64750;52.134;5.424;2024-01-16T02:49:21;1.48;;;0.50;;
72085;SDS011;64750;52.134;5.424;2024-01-16T02:51:47;0.98;;;0.30;;
72085;SDS011;64750;52.134;5.424;2024-01-16T02:54:14;3.92;;;0.93;;
72085;SDS011;64750;52.134;5.424;2024-01-16T02:56:40;2.60;;;0.60;;
72085;SDS011;64750;52.134;5.424;2024-01-16T02:59:07;2.30;;;0.60;;
72085;SDS011;64750;52.134;5.424;2024-01-16T03:01:33;6.03;;;0.70;;
72085;SDS011;64750;52.134;5.424;2024-01-16T03:04:00;1.60;;;0.55;;
72085;SDS011;64750;52.134;5.424;2024-01-16T03:06:26;4.43;;;0.43;;
72085;SDS011;64750;52.134;5.424;2024-01-16T03:08:55;1.70;;;0.50;;
72085;SDS011;64750;52.134;5.424;2024-01-16T03:11:22;0.73;;;0.30;;
72085;SDS011;64750;52.134;5.424;2024-01-16T03:13:48;4.63;;;0.47;;
72085;SDS011;64750;52.134;5.424;2024-01-16T03:16:18;1.98;;;0.63;;
72085;SDS011;64750;52.134;5.424;2024-01-16T03:18:45;0.73;;;0.30;;
72085;SDS011;64750;52.134;5.424;2024-01-16T03:21:13;0.40;;;0.20;;
72085;SDS011;64750;52.134;5.424;2024-01-16T03:23:39;4.95;;;0.88;;
72085;SDS011;64750;52.134;5.424;2024-01-16T03:26:06;2.22;;;0.43;;
72085;SDS011;64750;52.134;5.424;2024-01-16T03:28:33;2.33;;;0.30;;
72085;SDS011;64750;52.134;5.424;2024-01-16T03:30:59;0.80;;;0.30;;
72085;SDS011;64750;52.134;5.424;2024-01-16T03:33:26;0.40;;;0.20;;
72085;SDS011;64750;52.134;5.424;2024-01-16T03:35:53;0.52;;;0.15;;
72085;SDS011;64750;52.134;5.424;2024-01-16T03:38:19;4.40;;;0.28;;
72085;SDS011;64750;52.134;5.424;2024-01-16T03:40:46;1.55;;;0.40;;
72085;SDS011;64750;52.134;5.424;2024-01-16T03:43:12;2.50;;;0.35;;
72085;SDS011;64750;52.134;5.424;2024-01-16T03:45:39;1.57;;;0.20;;
72085;SDS011;64750;52.134;5.424;2024-01-16T03:48:05;0.73;;;0.20;;
72085;SDS011;64750;52.134;5.424;2024-01-16T03:50:32;0.32;;;0.20;;
72085;SDS011;64750;52.134;5.424;2024-01-16T03:53:00;0.90;;;0.20;;
72085;SDS011;64750;52.134;5.424;2024-01-16T03:55:26;2.33;;;0.30;;
72085;SDS011;64750;52.134;5.424;2024-01-16T03:57:52;1.47;;;0.20;;
72085;SDS011;64750;52.134;5.424;2024-01-16T04:00:19;2.72;;;0.40;;
72085;SDS011;64750;52.134;5.424;2024-01-16T04:02:45;2.03;;;0.70;;
72085;SDS011;64750;52.134;5.424;2024-01-16T04:05:12;1.95;;;0.47;;
72085;SDS011;64750;52.134;5.424;2024-01-16T04:07:39;0.47;;;0.30;;
72085;SDS011;64750;52.134;5.424;2024-01-16T04:10:06;0.60;;;0.40;;
72085;SDS011;64750;52.134;5.424;2024-01-16T04:12:33;1.48;;;0.30;;
72085;SDS011;64750;52.134;5.424;2024-01-16T04:14:59;1.38;;;0.30;;
72085;SDS011;64750;52.134;5.424;2024-01-16T04:17:26;1.25;;;0.50;;
72085;SDS011;64750;52.134;5.424;2024-01-16T04:19:52;0.43;;;0.20;;
72085;SDS011;64750;52.134;5.424;2024-01-16T04:22:19;3.63;;;0.27;;
72085;SDS011;64750;52.134;5.424;2024-01-16T04:24:45;2.05;;;0.28;;
72085;SDS011;64750;52.134;5.424;2024-01-16T04:27:13;1.85;;;0.30;;
72085;SDS011;64750;52.134;5.424;2024-01-16T04:29:39;0.85;;;0.30;;
72085;SDS011;64750;52.134;5.424;2024-01-16T04:32:06;0.80;;;0.40;;
72085;SDS011;64750;52.134;5.424;2024-01-16T04:34:32;1.10;;;0.30;;
72085;SDS011;64750;52.134;5.424;2024-01-16T04:36:59;3.70;;;0.70;;
72085;SDS011;64750;52.134;5.424;2024-01-16T04:39:25;0.68;;;0.25;;
72085;SDS011;64750;52.134;5.424;2024-01-16T04:41:52;0.75;;;0.32;;
72085;SDS011;64750;52.134;5.424;2024-01-16T04:44:18;0.75;;;0.30;;
72085;SDS011;64750;52.134;5.424;2024-01-16T04:46:44;1.73;;;0.20;;
72085;SDS011;64750;52.134;5.424;2024-01-16T04:49:11;1.27;;;0.32;;
72085;SDS011;64750;52.134;5.424;2024-01-16T04:51:37;2.72;;;0.30;;
72085;SDS011;64750;52.134;5.424;2024-01-16T04:54:04;1.23;;;0.50;;
72085;SDS011;64750;52.134;5.424;2024-01-16T04:56:30;1.30;;;0.40;;
72085;SDS011;64750;52.134;5.424;2024-01-16T04:58:57;1.80;;;0.30;;
72085;SDS011;64750;52.134;5.424;2024-01-16T05:01:24;2.28;;;0.40;;
72085;SDS011;64750;52.134;5.424;2024-01-16T05:03:51;4.10;;;0.40;;
72085;SDS011;64750;52.134;5.424;2024-01-16T05:06:17;1.33;;;0.43;;
72085;SDS011;64750;52.134;5.424;2024-01-16T05:08:44;2.72;;;0.63;;
72085;SDS011;64750;52.134;5.424;2024-01-16T05:11:11;1.30;;;0.50;;
72085;SDS011;64750;52.134;5.424;2024-01-16T05:13:37;1.17;;;0.57;;
72085;SDS011;64750;52.134;5.424;2024-01-16T05:16:05;3.20;;;0.30;;
72085;SDS011;64750;52.134;5.424;2024-01-16T05:18:32;2.65;;;0.45;;
72085;SDS011;64750;52.134;5.424;2024-01-16T05:21:01;2.65;;;0.60;;
72085;SDS011;64750;52.134;5.424;2024-01-16T05:23:28;2.53;;;0.50;;
72085;SDS011;64750;52.134;5.424;2024-01-16T05:25:55;1.52;;;0.40;;
72085;SDS011;64750;52.134;5.424;2024-01-16T05:28:22;0.50;;;0.40;;
72085;SDS011;64750;52.134;5.424;2024-01-16T05:30:48;0.85;;;0.57;;
72085;SDS011;64750;52.134;5.424;2024-01-16T05:33:15;4.22;;;1.40;;
72085;SDS011;64750;52.134;5.424;2024-01-16T05:35:42;1.73;;;0.70;;
72085;SDS011;64750;52.134;5.424;2024-01-16T05:38:09;2.38;;;0.90;;
72085;SDS011;64750;52.134;5.424;2024-01-16T05:40:38;1.33;;;0.70;;
72085;SDS011;64750;52.134;5.424;2024-01-16T05:43:06;4.93;;;0.90;;
72085;SDS011;64750;52.134;5.424;2024-01-16T05:45:32;1.05;;;0.80;;
72085;SDS011;64750;52.134;5.424;2024-01-16T05:47:59;1.47;;;0.83;;
72085;SDS011;64750;52.134;5.424;2024-01-16T05:50:25;2.75;;;0.80;;
72085;SDS011;64750;52.134;5.424;2024-01-16T05:52:52;3.03;;;0.75;;
72085;SDS011;64750;52.134;5.424;2024-01-16T05:55:19;2.05;;;1.05;;
72085;SDS011;64750;52.134;5.424;2024-01-16T05:57:47;1.10;;;1.00;;
72085;SDS011;64750;52.134;5.424;2024-01-16T06:00:14;1.33;;;0.80;;
72085;SDS011;64750;52.134;5.424;2024-01-16T06:02:40;0.95;;;0.77;;
72085;SDS011;64750;52.134;5.424;2024-01-16T06:05:07;1.17;;;0.60;;
72085;SDS011;64750;52.134;5.424;2024-01-16T06:07:34;0.90;;;0.68;;
72085;SDS011;64750;52.134;5.424;2024-01-16T06:10:00;2.17;;;0.95;;
72085;SDS011;64750;52.134;5.424;2024-01-16T06:12:28;2.87;;;0.90;;
72085;SDS011;64750;52.134;5.424;2024-01-16T06:14:55;0.80;;;0.70;;
72085;SDS011;64750;52.134;5.424;2024-01-16T06:17:21;3.05;;;1.55;;
72085;SDS011;64750;52.134;5.424;2024-01-16T06:19:51;1.05;;;0.85;;
72085;SDS011;64750;52.134;5.424;2024-01-16T06:22:18;1.90;;;0.98;;
72085;SDS011;64750;52.134;5.424;2024-01-16T06:24:44;0.93;;;0.57;;
72085;SDS011;64750;52.134;5.424;2024-01-16T06:27:11;1.50;;;0.70;;
72085;SDS011;64750;52.134;5.424;2024-01-16T06:29:40;2.05;;;0.70;;
72085;SDS011;64750;52.134;5.424;2024-01-16T06:32:06;2.83;;;0.90;;
72085;SDS011;64750;52.134;5.424;2024-01-16T06:34:33;2.40;;;1.00;;
72085;SDS011;64750;52.134;5.424;2024-01-16T06:36:59;1.97;;;0.80;;
72085;SDS011;64750;52.134;5.424;2024-01-16T06:39:26;2.08;;;0.60;;
72085;SDS011;64750;52.134;5.424;2024-01-16T06:41:53;2.88;;;0.77;;
72085;SDS011;64750;52.134;5.424;2024-01-16T06:44:20;2.15;;;0.50;;
72085;SDS011;64750;52.134;5.424;2024-01-16T06:46:46;1.23;;;0.70;;
72085;SDS011;64750;52.134;5.424;2024-01-16T06:49:13;1.40;;;0.80;;
72085;SDS011;64750;52.134;5.424;2024-01-16T06:51:39;1.48;;;0.70;;
72085;SDS011;64750;52.134;5.424;2024-01-16T06:54:06;2.22;;;0.50;;
72085;SDS011;64750;52.134;5.424;2024-01-16T06:56:32;2.05;;;0.70;;
72085;SDS011;64750;52.134;5.424;2024-01-16T06:58:59;2.90;;;0.77;;
72085;SDS011;64750;52.134;5.424;2024-01-16T07:01:26;0.80;;;0.60;;
72085;SDS011;64750;52.134;5.424;2024-01-16T07:03:52;1.65;;;0.75;;
72085;SDS011;64750;52.134;5.424;2024-01-16T07:06:19;1.85;;;0.95;;
72085;SDS011;64750;52.134;5.424;2024-01-16T07:08:46;1.13;;;0.73;;
72085;SDS011;64750;52.134;5.424;2024-01-16T07:11:13;0.73;;;0.73;;
72085;SDS011;64750;52.134;5.424;2024-01-16T07:13:40;2.50;;;0.90;;
72085;SDS011;64750;52.134;5.424;2024-01-16T07:16:10;3.50;;;1.20;;
72085;SDS011;64750;52.134;5.424;2024-01-16T07:18:38;1.80;;;1.27;;
72085;SDS011;64750;52.134;5.424;2024-01-16T07:21:16;4.72;;;1.95;;
72085;SDS011;64750;52.134;5.424;2024-01-16T07:23:44;1.80;;;1.67;;
72085;SDS011;64750;52.134;5.424;2024-01-16T07:26:11;2.97;;;1.60;;
72085;SDS011;64750;52.134;5.424;2024-01-16T07:28:37;6.15;;;2.15;;
72085;SDS011;64750;52.134;5.424;2024-01-16T07:31:04;1.70;;;1.60;;
72085;SDS011;64750;52.134;5.424;2024-01-16T07:33:32;9.00;;;2.30;;
72085;SDS011;64750;52.134;5.424;2024-01-16T07:35:58;3.10;;;2.22;;
72085;SDS011;64750;52.134;5.424;2024-01-16T07:38:25;2.10;;;1.90;;
72085;SDS011;64750;52.134;5.424;2024-01-16T07:40:52;3.47;;;2.55;;
72085;SDS011;64750;52.134;5.424;2024-01-16T07:43:18;6.88;;;2.83;;
72085;SDS011;64750;52.134;5.424;2024-01-16T07:45:45;2.65;;;2.45;;
72085;SDS011;64750;52.134;5.424;2024-01-16T07:48:11;5.70;;;3.08;;
72085;SDS011;64750;52.134;5.424;2024-01-16T07:50:39;5.10;;;3.20;;
72085;SDS011;64750;52.134;5.424;2024-01-16T07:53:05;4.15;;;2.95;;
72085;SDS011;64750;52.134;5.424;2024-01-16T07:55:34;6.03;;;4.07;;
72085;SDS011;64750;52.134;5.424;2024-01-16T07:58:00;3.10;;;2.72;;
72085;SDS011;64750;52.134;5.424;2024-01-16T08:00:29;4.03;;;3.53;;
72085;SDS011;64750;52.134;5.424;2024-01-16T08:02:56;4.30;;;3.17;;
72085;SDS011;64750;52.134;5.424;2024-01-16T08:05:22;6.95;;;4.00;;
72085;SDS011;64750;52.134;5.424;2024-01-16T08:07:51;8.05;;;5.00;;
72085;SDS011;64750;52.134;5.424;2024-01-16T08:10:18;8.20;;;4.18;;
72085;SDS011;64750;52.134;5.424;2024-01-16T08:12:45;16.75;;;6.22;;
72085;SDS011;64750;52.134;5.424;2024-01-16T08:15:12;28.83;;;7.87;;
72085;SDS011;64750;52.134;5.424;2024-01-16T08:17:38;32.72;;;11.20;;
72085;SDS011;64750;52.134;5.424;2024-01-16T08:20:06;22.38;;;7.82;;
72085;SDS011;64750;52.134;5.424;2024-01-16T08:22:36;35.95;;;12.70;;
72085;SDS011;64750;52.134;5.424;2024-01-16T08:25:03;12.95;;;5.53;;
72085;SDS011;64750;52.134;5.424;2024-01-16T08:27:34;5.17;;;3.57;;
72085;SDS011;64750;52.134;5.424;2024-01-16T08:30:01;10.30;;;5.35;;
72085;SDS011;64750;52.134;5.424;2024-01-16T08:32:27;6.63;;;3.80;;
72085;SDS011;64750;52.134;5.424;2024-01-16T08:34:54;6.75;;;3.20;;
72085;SDS011;64750;52.134;5.424;2024-01-16T08:37:20;8.50;;;3.50;;
72085;SDS011;64750;52.134;5.424;2024-01-16T08:39:46;9.37;;;3.20;;
72085;SDS011;64750;52.134;5.424;2024-01-16T08:42:13;3.80;;;3.25;;
72085;SDS011;64750;52.134;5.424;2024-01-16T08:44:39;9.93;;;3.80;;
72085;SDS011;64750;52.134;5.424;2024-01-16T08:47:06;3.25;;;2.50;;
72085;SDS011;64750;52.134;5.424;2024-01-16T08:49:33;3.83;;;2.60;;
72085;SDS011;64750;52.134;5.424;2024-01-16T08:52:00;5.20;;;2.20;;
72085;SDS011;64750;52.134;5.424;2024-01-16T08:54:26;4.28;;;2.33;;
72085;SDS011;64750;52.134;5.424;2024-01-16T08:56:53;5.10;;;2.63;;
72085;SDS011;64750;52.134;5.424;2024-01-16T08:59:19;7.07;;;2.83;;
72085;SDS011;64750;52.134;5.424;2024-01-16T09:01:46;9.15;;;2.90;;
72085;SDS011;64750;52.134;5.424;2024-01-16T09:04:13;3.47;;;2.20;;
72085;SDS011;64750;52.134;5.424;2024-01-16T09:06:39;3.25;;;2.35;;
72085;SDS011;64750;52.134;5.424;2024-01-16T09:09:06;5.25;;;2.35;;
72085;SDS011;64750;52.134;5.424;2024-01-16T09:11:32;5.20;;;2.10;;
72085;SDS011;64750;52.134;5.424;2024-01-16T09:14:00;2.45;;;2.13;;
72085;SDS011;64750;52.134;5.424;2024-01-16T09:16:29;7.00;;;1.77;;
72085;SDS011;64750;52.134;5.424;2024-01-16T09:18:56;4.07;;;2.08;;
72085;SDS011;64750;52.134;5.424;2024-01-16T09:21:23;4.50;;;1.80;;
72085;SDS011;64750;52.134;5.424;2024-01-16T09:23:49;3.63;;;1.80;;
72085;SDS011;64750;52.134;5.424;2024-01-16T09:26:16;7.95;;;2.00;;
72085;SDS011;64750;52.134;5.424;2024-01-16T09:28:43;9.67;;;2.20;;
72085;SDS011;64750;52.134;5.424;2024-01-16T09:31:10;3.75;;;2.15;;
72085;SDS011;64750;52.134;5.424;2024-01-16T09:33:37;7.15;;;1.77;;
72085;SDS011;64750;52.134;5.424;2024-01-16T09:36:03;9.38;;;1.77;;
72085;SDS011;64750;52.134;5.424;2024-01-16T09:38:30;4.55;;;1.60;;
72085;SDS011;64750;52.134;5.424;2024-01-16T09:40:57;3.37;;;1.20;;
72085;SDS011;64750;52.134;5.424;2024-01-16T09:43:26;4.82;;;2.10;;
72085;SDS011;64750;52.134;5.424;2024-01-16T09:45:54;4.57;;;1.33;;
72085;SDS011;64750;52.134;5.424;2024-01-16T09:48:24;5.07;;;1.75;;
72085;SDS011;64750;52.134;5.424;2024-01-16T09:50:53;2.40;;;1.70;;
72085;SDS011;64750;52.134;5.424;2024-01-16T09:53:19;5.30;;;1.50;;
72085;SDS011;64750;52.134;5.424;2024-01-16T09:55:47;6.05;;;1.73;;
72085;SDS011;64750;52.134;5.424;2024-01-16T09:58:16;5.88;;;1.17;;
72085;SDS011;64750;52.134;5.424;2024-01-16T10:00:48;2.90;;;1.63;;
72085;SDS011;64750;52.134;5.424;2024-01-16T10:03:16;2.55;;;1.40;;
72085;SDS011;64750;52.134;5.424;2024-01-16T10:05:43;3.10;;;1.47;;
72085;SDS011;64750;52.134;5.424;2024-01-16T10:08:12;1.90;;;1.70;;
72085;SDS011;64750;52.134;5.424;2024-01-16T10:10:39;4.03;;;1.70;;
72085;SDS011;64750;52.134;5.424;2024-01-16T10:13:15;3.40;;;2.17;;
72085;SDS011;64750;52.134;5.424;2024-01-16T10:15:44;1.75;;;1.45;;
72085;SDS011;64750;52.134;5.424;2024-01-16T10:18:22;2.67;;;1.90;;
72085;SDS011;64750;52.134;5.424;2024-01-16T10:20:56;7.07;;;1.92;;
72085;SDS011;64750;52.134;5.424;2024-01-16T10:23:26;2.95;;;1.95;;
72085;SDS011;64750;52.134;5.424;2024-01-16T10:26:07;3.38;;;1.42;;
72085;SDS011;64750;52.134;5.424;2024-01-16T10:28:38;5.53;;;2.15;;
72085;SDS011;64750;52.134;5.424;2024-01-16T10:31:15;3.53;;;1.77;;
72085;SDS011;64750;52.134;5.424;2024-01-16T10:33:42;3.20;;;2.00;;
72085;SDS011;64750;52.134;5.424;2024-01-16T10:36:09;3.60;;;2.25;;
72085;SDS011;64750;52.134;5.424;2024-01-16T10:38:43;3.88;;;1.83;;
72085;SDS011;64750;52.134;5.424;2024-01-16T10:43:41;4.63;;;1.93;;
72085;SDS011;64750;52.134;5.424;2024-01-16T10:46:08;8.80;;;2.60;;
72085;SDS011;64750;52.134;5.424;2024-01-16T10:49:01;5.20;;;2.85;;
72085;SDS011;64750;52.134;5.424;2024-01-16T10:51:30;4.00;;;2.20;;
72085;SDS011;64750;52.134;5.424;2024-01-16T10:54:04;7.35;;;2.13;;
72085;SDS011;64750;52.134;5.424;2024-01-16T10:56:37;4.33;;;1.57;;
72085;SDS011;64750;52.134;5.424;2024-01-16T11:02:00;3.83;;;1.65;;
72085;SDS011;64750;52.134;5.424;2024-01-16T11:04:30;3.35;;;1.88;;
72085;SDS011;64750;52.134;5.424;2024-01-16T11:06:57;4.70;;;1.40;;
72085;SDS011;64750;52.134;5.424;2024-01-16T11:09:25;4.00;;;1.77;;
72085;SDS011;64750;52.134;5.424;2024-01-16T11:11:53;3.15;;;1.10;;
72085;SDS011;64750;52.134;5.424;2024-01-16T11:14:21;3.63;;;1.45;;
72085;SDS011;64750;52.134;5.424;2024-01-16T11:16:49;2.13;;;1.20;;
72085;SDS011;64750;52.134;5.424;2024-01-16T11:19:18;4.22;;;1.20;;
72085;SDS011;64750;52.134;5.424;2024-01-16T11:22:06;7.30;;;1.60;;
72085;SDS011;64750;52.134;5.424;2024-01-16T11:24:33;3.85;;;1.38;;
72085;SDS011;64750;52.134;5.424;2024-01-16T11:26:59;4.10;;;1.52;;
72085;SDS011;64750;52.134;5.424;2024-01-16T11:31:53;6.97;;;1.20;;
72085;SDS011;64750;52.134;5.424;2024-01-16T11:37:07;6.10;;;1.58;;
72085;SDS011;64750;52.134;5.424;2024-01-16T11:39:34;3.53;;;1.65;;
72085;SDS011;64750;52.134;5.424;2024-01-16T11:42:01;4.38;;;1.73;;
72085;SDS011;64750;52.134;5.424;2024-01-16T11:47:06;3.67;;;1.80;;
72085;SDS011;64750;52.134;5.424;2024-01-16T11:49:33;3.28;;;1.27;;
72085;SDS011;64750;52.134;5.424;2024-01-16T11:52:03;3.13;;;1.60;;
72085;SDS011;64750;52.134;5.424;2024-01-16T11:54:30;4.78;;;1.70;;
72085;SDS011;64750;52.134;5.424;2024-01-16T11:57:21;3.70;;;1.10;;
72085;SDS011;64750;52.134;5.424;2024-01-16T12:00:02;4.73;;;0.97;;
72085;SDS011;64750;52.134;5.424;2024-01-16T12:05:20;1.65;;;1.35;;
72085;SDS011;64750;52.134;5.424;2024-01-16T12:10:18;7.75;;;1.67;;
72085;SDS011;64750;52.134;5.424;2024-01-16T12:12:46;1.40;;;1.13;;
72085;SDS011;64750;52.134;5.424;2024-01-16T12:15:19;1.27;;;1.17;;
72085;SDS011;64750;52.134;5.424;2024-01-16T12:17:54;3.03;;;1.42;;
72085;SDS011;64750;52.134;5.424;2024-01-16T12:20:21;2.72;;;1.45;;
72085;SDS011;64750;52.134;5.424;2024-01-16T12:22:52;4.93;;;1.85;;
72085;SDS011;64750;52.134;5.424;2024-01-16T12:25:23;2.47;;;1.60;;
72085;SDS011;64750;52.134;5.424;2024-01-16T12:28:11;4.18;;;1.20;;
72085;SDS011;64750;52.134;5.424;2024-01-16T12:30:37;4.28;;;1.10;;
72085;SDS011;64750;52.134;5.424;2024-01-16T12:33:05;2.28;;;0.93;;
72085;SDS011;64750;52.134;5.424;2024-01-16T12:35:37;4.22;;;1.45;;
72085;SDS011;64750;52.134;5.424;2024-01-16T12:38:08;1.70;;;0.90;;
72085;SDS011;64750;52.134;5.424;2024-01-16T12:40:39;2.45;;;1.20;;
72085;SDS011;64750;52.134;5.424;2024-01-16T12:43:10;2.85;;;1.08;;
72085;SDS011;64750;52.134;5.424;2024-01-16T12:45:37;1.63;;;1.27;;
72085;SDS011;64750;52.134;5.424;2024-01-16T12:48:04;3.13;;;1.45;;
72085;SDS011;64750;52.134;5.424;2024-01-16T12:50:31;5.53;;;1.83;;
72085;SDS011;64750;52.134;5.424;2024-01-16T12:53:05;5.00;;;2.00;;
72085;SDS011;64750;52.134;5.424;2024-01-16T12:55:34;3.58;;;1.60;;
72085;SDS011;64750;52.134;5.424;2024-01-16T13:00:48;11.88;;;2.10;;
72085;SDS011;64750;52.134;5.424;2024-01-16T13:03:19;3.20;;;1.90;;
72085;SDS011;64750;52.134;5.424;2024-01-16T13:05:56;2.08;;;1.60;;
72085;SDS011;64750;52.134;5.424;2024-01-16T13:08:24;2.10;;;1.65;;
72085;SDS011;64750;52.134;5.424;2024-01-16T13:11:13;3.97;;;1.80;;
72085;SDS011;64750;52.134;5.424;2024-01-16T13:13:38;5.18;;;2.10;;
72085;SDS011;64750;52.134;5.424;2024-01-16T13:16:04;5.70;;;1.67;;
72085;SDS011;64750;52.134;5.424;2024-01-16T13:18:34;1.83;;;1.67;;
72085;SDS011;64750;52.134;5.424;2024-01-16T13:21:01;3.75;;;1.50;;
72085;SDS011;64750;52.134;5.424;2024-01-16T13:23:28;2.88;;;1.60;;
72085;SDS011;64750;52.134;5.424;2024-01-16T13:25:55;4.57;;;1.90;;
72085;SDS011;64750;52.134;5.424;2024-01-16T13:28:25;6.17;;;1.80;;
72085;SDS011;64750;52.134;5.424;2024-01-16T13:30:52;3.15;;;1.50;;
72085;SDS011;64750;52.134;5.424;2024-01-16T13:33:19;4.65;;;1.95;;
72085;SDS011;64750;52.134;5.424;2024-01-16T13:35:46;5.85;;;2.00;;
72085;SDS011;64750;52.134;5.424;2024-01-16T13:38:13;3.17;;;2.20;;
72085;SDS011;64750;52.134;5.424;2024-01-16T13:40:45;3.53;;;1.93;;
72085;SDS011;64750;52.134;5.424;2024-01-16T13:43:12;8.05;;;2.05;;
72085;SDS011;64750;52.134;5.424;2024-01-16T13:45:39;7.25;;;2.85;;
72085;SDS011;64750;52.134;5.424;2024-01-16T13:48:07;3.95;;;1.70;;
72085;SDS011;64750;52.134;5.424;2024-01-16T13:50:34;2.05;;;1.83;;
72085;SDS011;64750;52.134;5.424;2024-01-16T13:53:01;3.67;;;2.00;;
72085;SDS011;64750;52.134;5.424;2024-01-16T13:55:28;2.70;;;1.95;;
72085;SDS011;64750;52.134;5.424;2024-01-16T13:57:58;2.55;;;1.58;;
72085;SDS011;64750;52.134;5.424;2024-01-16T14:00:24;3.25;;;1.95;;
72085;SDS011;64750;52.134;5.424;2024-01-16T14:02:51;2.38;;;1.50;;
72085;SDS011;64750;52.134;5.424;2024-01-16T14:05:18;4.80;;;1.53;;
72085;SDS011;64750;52.134;5.424;2024-01-16T14:07:46;2.20;;;1.52;;
72085;SDS011;64750;52.134;5.424;2024-01-16T14:10:18;5.13;;;1.88;;
72085;SDS011;64750;52.134;5.424;2024-01-16T14:12:46;3.35;;;1.40;;
72085;SDS011;64750;52.134;5.424;2024-01-16T14:15:14;1.52;;;1.33;;
72085;SDS011;64750;52.134;5.424;2024-01-16T14:17:46;6.43;;;1.80;;
72085;SDS011;64750;52.134;5.424;2024-01-16T14:20:18;3.15;;;1.48;;
72085;SDS011;64750;52.134;5.424;2024-01-16T14:22:53;4.55;;;1.63;;
72085;SDS011;64750;52.134;5.424;2024-01-16T14:25:19;4.32;;;1.95;;
72085;SDS011;64750;52.134;5.424;2024-01-16T14:28:05;4.90;;;1.73;;
72085;SDS011;64750;52.134;5.424;2024-01-16T14:30:38;3.10;;;0.90;;
72085;SDS011;64750;52.134;5.424;2024-01-16T14:33:09;2.67;;;1.33;;
72085;SDS011;64750;52.134;5.424;2024-01-16T14:35:36;1.70;;;1.48;;
72085;SDS011;64750;52.134;5.424;2024-01-16T14:38:02;5.05;;;1.02;;
72085;SDS011;64750;52.134;5.424;2024-01-16T14:40:29;3.42;;;1.30;;
72085;SDS011;64750;52.134;5.424;2024-01-16T14:42:56;4.20;;;1.90;;
72085;SDS011;64750;52.134;5.424;2024-01-16T14:45:25;5.07;;;1.60;;
72085;SDS011;64750;52.134;5.424;2024-01-16T14:47:53;3.67;;;1.98;;
72085;SDS011;64750;52.134;5.424;2024-01-16T14:50:20;5.60;;;1.90;;
72085;SDS011;64750;52.134;5.424;2024-01-16T14:52:48;2.40;;;1.80;;
72085;SDS011;64750;52.134;5.424;2024-01-16T14:55:18;2.60;;;2.20;;
72085;SDS011;64750;52.134;5.424;2024-01-16T14:57:46;6.82;;;2.13;;
72085;SDS011;64750;52.134;5.424;2024-01-16T15:00:18;5.22;;;2.10;;
72085;SDS011;64750;52.134;5.424;2024-01-16T15:02:53;2.70;;;1.63;;
72085;SDS011;64750;52.134;5.424;2024-01-16T15:05:20;2.20;;;1.65;;
72085;SDS011;64750;52.134;5.424;2024-01-16T15:07:48;5.83;;;1.80;;
72085;SDS011;64750;52.134;5.424;2024-01-16T15:10:18;3.05;;;1.88;;
72085;SDS011;64750;52.134;5.424;2024-01-16T15:12:45;3.97;;;2.10;;
72085;SDS011;64750;52.134;5.424;2024-01-16T15:15:13;3.38;;;1.95;;